This is the latest recevied weather packets stored in our database for station/object K8BCO. If no packets are shown the sender has not sent any weather packets the latest 10 day(s).
| Time | Temp. | Humidity | Pressure | Rain* | Wind** | Luminosity | Snow |
|---|---|---|---|---|---|---|---|
| 1777920316 | 17.22° C | 47% | 991.8 hPa | 0 mm | - | 900 W/m² | - |
| 1777919716 | 17.22° C | 48% | 991.9 hPa | 0 mm | - | 926 W/m² | - |
| 1777919116 | 17.22° C | 46% | 991.6 hPa | 0 mm | - | 856 W/m² | - |
| 1777918516 | 16.67° C | 45% | 991.5 hPa | 0 mm | - | 934 W/m² | - |
| 1777917916 | 16.67° C | 46% | 991.6 hPa | 0 mm | - | 961 W/m² | - |
| 1777917317 | 16.11° C | 48% | 991.8 hPa | 0 mm | - | 742 W/m² | - |
| 1777916717 | 16.11° C | 49% | 991.9 hPa | 0 mm | - | 782 W/m² | - |
| 1777916117 | 16.11° C | 49% | 991.7 hPa | 0 mm | - | 944 W/m² | - |
| 1777915517 | 15.56° C | 50% | 991.6 hPa | 0 mm | - | 921 W/m² | - |
| 1777914917 | 15° C | 53% | 991.4 hPa | 0 mm | - | 917 W/m² | - |
| 1777914318 | 14.44° C | 54% | 991.2 hPa | 0 mm | - | 859 W/m² | - |
| 1777913717 | 13.89° C | 56% | 991.2 hPa | 0 mm | - | 344 W/m² | - |
| 1777913118 | 13.89° C | 58% | 991.1 hPa | 0 mm | - | 337 W/m² | - |
| 1777912518 | 12.78° C | 62% | 991.3 hPa | 0 mm | - | 355 W/m² | - |
| 1777911918 | 12.22° C | 65% | 991.4 hPa | 0 mm | - | 191 W/m² | - |
| 1777911318 | 12.22° C | 65% | 991.6 hPa | 0 mm | - | 206 W/m² | - |
| 1777910716 | 12.22° C | 66% | 991.9 hPa | 0 mm | - | 336 W/m² | - |
| 1777910117 | 12.78° C | 63% | 991.9 hPa | 0 mm | - | 261 W/m² | - |
| 1777909516 | 13.33° C | 61% | 991.6 hPa | 0 mm | - | 137 W/m² | - |
| 1777908916 | 14.44° C | 56% | 991.3 hPa | 0 mm | - | 301 W/m² | - |
| 1777908316 | 15° C | 55% | 991 hPa | 0 mm | - | 667 W/m² | - |
| 1777907716 | 15° C | 54% | 990.6 hPa | 0 mm | - | 565 W/m² | - |
| 1777907116 | 16.11° C | 52% | 990.3 hPa | 0 mm | - | 375 W/m² | - |
| 1777906516 | 18.89° C | 41% | 989.7 hPa | 0 mm | - | 346 W/m² | - |
| 1777905917 | 18.33° C | 39% | 989.1 hPa | 0 mm | - | 332 W/m² | - |
* Rain latest hour (hover to see other rain measurements)
** Current wind speed in m/s (hover to see current wind gust speed)